sensor_id;sensor_type;location;lat;lon;timestamp;temperature;humidity
55701;DHT22;41604;43.142;20.512;2024-01-11T12:06:17;154.40;2252.80
55701;DHT22;41604;43.142;20.512;2024-01-11T12:08:44;153.90;1894.40
55701;DHT22;41604;43.142;20.512;2024-01-11T13:54:09;153.80;1894.40
55701;DHT22;41604;43.142;20.512;2024-01-11T13:56:35;128.80;1945.60
55701;DHT22;41604;43.142;20.512;2024-01-11T13:59:01;128.90;1945.60
55701;DHT22;41604;43.142;20.512;2024-01-11T14:01:27;128.80;1971.20
55701;DHT22;41604;43.142;20.512;2024-01-11T14:03:52;128.90;1971.20
55701;DHT22;41604;43.142;20.512;2024-01-11T14:06:18;128.80;1971.20
55701;DHT22;41604;43.142;20.512;2024-01-11T14:08:44;128.80;1971.20
55701;DHT22;41604;43.142;20.512;2024-01-11T14:11:10;128.90;1945.60
55701;DHT22;41604;43.142;20.512;2024-01-11T14:13:35;128.90;1945.60
55701;DHT22;41604;43.142;20.512;2024-01-11T14:16:01;128.90;1945.60
55701;DHT22;41604;43.142;20.512;2024-01-11T14:18:27;128.90;1945.60
55701;DHT22;41604;43.142;20.512;2024-01-11T14:20:53;128.90;1945.60
55701;DHT22;41604;43.142;20.512;2024-01-11T14:35:29;128.80;1945.60
55701;DHT22;41604;43.142;20.512;2024-01-11T18:44:52;128.50;1996.80
55701;DHT22;41604;43.142;20.512;2024-01-11T18:47:19;26.30;2201.60
55701;DHT22;41604;43.142;20.512;2024-01-11T18:49:45;26.20;2201.60
55701;DHT22;41604;43.142;20.512;2024-01-11T18:52:10;26.30;2201.60
55701;DHT22;41604;43.142;20.512;2024-01-11T18:54:36;26.40;2201.60
55701;DHT22;41604;43.142;20.512;2024-01-11T18:57:02;26.10;2201.60
55701;DHT22;41604;43.142;20.512;2024-01-11T18:59:28;26.20;2201.60
55701;DHT22;41604;43.142;20.512;2024-01-11T19:01:53;26.10;2201.60
55701;DHT22;41604;43.142;20.512;2024-01-11T19:04:19;26.00;2201.60
55701;DHT22;41604;43.142;20.512;2024-01-11T19:06:45;26.00;2201.60
55701;DHT22;41604;43.142;20.512;2024-01-11T19:09:11;26.00;2201.60
55701;DHT22;41604;43.142;20.512;2024-01-11T19:11:37;26.00;2201.60
55701;DHT22;41604;43.142;20.512;2024-01-11T19:14:02;25.90;2201.60
55701;DHT22;41604;43.142;20.512;2024-01-11T19:16:28;26.00;2201.60
55701;DHT22;41604;43.142;20.512;2024-01-11T19:18:54;26.00;2201.60
55701;DHT22;41604;43.142;20.512;2024-01-11T19:21:20;26.10;2201.60
55701;DHT22;41604;43.142;20.512;2024-01-11T19:23:45;26.10;2201.60
55701;DHT22;41604;43.142;20.512;2024-01-11T19:26:11;26.20;2201.60
55701;DHT22;41604;43.142;20.512;2024-01-11T19:28:37;26.20;2201.60
55701;DHT22;41604;43.142;20.512;2024-01-11T19:31:03;26.10;2201.60
55701;DHT22;41604;43.142;20.512;2024-01-11T19:33:29;26.40;2201.60
55701;DHT22;41604;43.142;20.512;2024-01-11T19:35:55;51.30;2227.20
55701;DHT22;41604;43.142;20.512;2024-01-11T19:38:22;51.30;2227.20
55701;DHT22;41604;43.142;20.512;2024-01-11T19:40:48;26.40;2201.60
55701;DHT22;41604;43.142;20.512;2024-01-11T19:43:13;26.20;2201.60
55701;DHT22;41604;43.142;20.512;2024-01-11T19:45:39;26.20;2201.60
55701;DHT22;41604;43.142;20.512;2024-01-11T19:48:05;26.00;2201.60
55701;DHT22;41604;43.142;20.512;2024-01-11T19:50:31;25.90;2201.60
55701;DHT22;41604;43.142;20.512;2024-01-11T19:52:59;25.80;2201.60
55701;DHT22;41604;43.142;20.512;2024-01-11T19:55:24;25.70;2201.60
55701;DHT22;41604;43.142;20.512;2024-01-11T19:57:50;25.60;2201.60
55701;DHT22;41604;43.142;20.512;2024-01-11T20:00:16;0.90;2201.60
55701;DHT22;41604;43.142;20.512;2024-01-11T20:02:42;0.90;2201.60
55701;DHT22;41604;43.142;20.512;2024-01-11T20:05:08;25.60;2201.60
55701;DHT22;41604;43.142;20.512;2024-01-11T20:07:33;25.60;2201.60
55701;DHT22;41604;43.142;20.512;2024-01-11T20:09:59;26.00;2201.60
55701;DHT22;41604;43.142;20.512;2024-01-11T20:12:25;26.20;2201.60
55701;DHT22;41604;43.142;20.512;2024-01-11T20:14:51;26.10;2201.60
55701;DHT22;41604;43.142;20.512;2024-01-11T20:17:17;26.10;2201.60
55701;DHT22;41604;43.142;20.512;2024-01-11T20:19:43;25.80;2201.60
55701;DHT22;41604;43.142;20.512;2024-01-11T20:22:09;25.60;2201.60
55701;DHT22;41604;43.142;20.512;2024-01-11T20:24:35;0.60;2201.60
55701;DHT22;41604;43.142;20.512;2024-01-11T20:27:01;0.50;2201.60
55701;DHT22;41604;43.142;20.512;2024-01-11T20:29:31;0.60;2201.60
55701;DHT22;41604;43.142;20.512;2024-01-11T20:31:57;0.70;2201.60
55701;DHT22;41604;43.142;20.512;2024-01-11T20:34:23;0.80;2201.60
55701;DHT22;41604;43.142;20.512;2024-01-11T20:36:48;0.50;2201.60
55701;DHT22;41604;43.142;20.512;2024-01-11T20:39:14;0.50;2201.60
55701;DHT22;41604;43.142;20.512;2024-01-11T20:41:40;0.40;2201.60
55701;DHT22;41604;43.142;20.512;2024-01-11T20:44:09;0.00;2201.60
55701;DHT22;41604;43.142;20.512;2024-01-11T20:46:35;0.00;2201.60
55701;DHT22;41604;43.142;20.512;2024-01-11T20:49:01;0.10;2201.60
55701;DHT22;41604;43.142;20.512;2024-01-11T20:51:26;0.40;2201.60
55701;DHT22;41604;43.142;20.512;2024-01-11T20:53:52;0.60;2201.60
55701;DHT22;41604;43.142;20.512;2024-01-11T20:56:22;25.60;2201.60
55701;DHT22;41604;43.142;20.512;2024-01-11T20:58:47;25.60;2201.60
55701;DHT22;41604;43.142;20.512;2024-01-11T21:01:13;0.90;2201.60
55701;DHT22;41604;43.142;20.512;2024-01-11T21:03:39;0.60;2201.60
55701;DHT22;41604;43.142;20.512;2024-01-11T21:06:05;0.40;2201.60
55701;DHT22;41604;43.142;20.512;2024-01-11T21:08:31;0.30;2201.60
55701;DHT22;41604;43.142;20.512;2024-01-11T21:10:56;0.30;2201.60
55701;DHT22;41604;43.142;20.512;2024-01-11T21:13:23;0.00;2201.60
55701;DHT22;41604;43.142;20.512;2024-01-11T21:15:51;0.00;2201.60
55701;DHT22;41604;43.142;20.512;2024-01-11T21:18:17;12.90;2201.60
55701;DHT22;41604;43.142;20.512;2024-01-11T21:20:43;13.00;2201.60
55701;DHT22;41604;43.142;20.512;2024-01-11T21:23:09;13.40;2201.60
55701;DHT22;41604;43.142;20.512;2024-01-11T21:25:35;13.40;2201.60
55701;DHT22;41604;43.142;20.512;2024-01-11T21:28:01;13.50;2201.60
55701;DHT22;41604;43.142;20.512;2024-01-11T21:30:27;13.30;2201.60
55701;DHT22;41604;43.142;20.512;2024-01-11T21:32:52;13.30;2201.60
55701;DHT22;41604;43.142;20.512;2024-01-11T21:35:19;13.10;2201.60
55701;DHT22;41604;43.142;20.512;2024-01-11T21:37:45;13.10;2201.60
55701;DHT22;41604;43.142;20.512;2024-01-11T21:40:11;13.40;2201.60
55701;DHT22;41604;43.142;20.512;2024-01-11T21:42:37;13.30;2201.60
55701;DHT22;41604;43.142;20.512;2024-01-11T21:45:06;13.40;2201.60
55701;DHT22;41604;43.142;20.512;2024-01-11T21:47:32;13.50;2201.60
55701;DHT22;41604;43.142;20.512;2024-01-11T21:49:58;13.50;2201.60
55701;DHT22;41604;43.142;20.512;2024-01-11T21:52:23;13.40;2201.60
55701;DHT22;41604;43.142;20.512;2024-01-11T21:54:50;13.20;2201.60
55701;DHT22;41604;43.142;20.512;2024-01-11T21:57:16;13.20;2201.60
55701;DHT22;41604;43.142;20.512;2024-01-11T21:59:42;13.20;2201.60
55701;DHT22;41604;43.142;20.512;2024-01-11T22:02:08;13.20;2201.60
55701;DHT22;41604;43.142;20.512;2024-01-11T22:04:34;13.20;2201.60
55701;DHT22;41604;43.142;20.512;2024-01-11T22:06:59;13.20;2201.60
55701;DHT22;41604;43.142;20.512;2024-01-11T22:09:25;13.20;2201.60
55701;DHT22;41604;43.142;20.512;2024-01-11T22:11:51;13.30;2201.60
55701;DHT22;41604;43.142;20.512;2024-01-11T22:14:17;13.30;2201.60
55701;DHT22;41604;43.142;20.512;2024-01-11T22:16:43;13.20;2201.60
55701;DHT22;41604;43.142;20.512;2024-01-11T22:19:08;13.00;2201.60
55701;DHT22;41604;43.142;20.512;2024-01-11T22:21:37;12.90;2201.60
55701;DHT22;41604;43.142;20.512;2024-01-11T22:24:08;13.00;2201.60
55701;DHT22;41604;43.142;20.512;2024-01-11T22:26:34;13.20;2201.60
55701;DHT22;41604;43.142;20.512;2024-01-11T22:29:00;13.30;2201.60
55701;DHT22;41604;43.142;20.512;2024-01-11T22:31:34;13.60;2201.60
55701;DHT22;41604;43.142;20.512;2024-01-11T22:34:03;38.40;2201.60
55701;DHT22;41604;43.142;20.512;2024-01-11T22:36:29;38.40;2201.60
55701;DHT22;41604;43.142;20.512;2024-01-11T22:38:55;38.50;2201.60
55701;DHT22;41604;43.142;20.512;2024-01-11T22:41:22;38.50;2201.60
55701;DHT22;41604;43.142;20.512;2024-01-11T22:43:49;38.70;2201.60
55701;DHT22;41604;43.142;20.512;2024-01-11T22:46:15;38.50;2201.60
55701;DHT22;41604;43.142;20.512;2024-01-11T22:48:41;38.40;2201.60
55701;DHT22;41604;43.142;20.512;2024-01-11T22:51:08;38.50;2201.60
55701;DHT22;41604;43.142;20.512;2024-01-11T22:53:34;13.70;2201.60
55701;DHT22;41604;43.142;20.512;2024-01-11T22:56:00;13.60;2201.60
55701;DHT22;41604;43.142;20.512;2024-01-11T22:58:26;13.60;2201.60
55701;DHT22;41604;43.142;20.512;2024-01-11T23:00:51;13.20;2201.60
55701;DHT22;41604;43.142;20.512;2024-01-11T23:03:17;12.90;2201.60
55701;DHT22;41604;43.142;20.512;2024-01-11T23:05:43;12.90;2201.60
55701;DHT22;41604;43.142;20.512;2024-01-11T23:08:09;13.20;2201.60
55701;DHT22;41604;43.142;20.512;2024-01-11T23:10:34;13.40;2201.60
55701;DHT22;41604;43.142;20.512;2024-01-11T23:13:02;13.50;2201.60
55701;DHT22;41604;43.142;20.512;2024-01-11T23:15:31;13.60;2201.60
55701;DHT22;41604;43.142;20.512;2024-01-11T23:17:58;13.70;2201.60
55701;DHT22;41604;43.142;20.512;2024-01-11T23:20:24;13.70;2201.60
55701;DHT22;41604;43.142;20.512;2024-01-11T23:22:50;38.40;2201.60
55701;DHT22;41604;43.142;20.512;2024-01-11T23:25:16;38.40;2201.60
55701;DHT22;41604;43.142;20.512;2024-01-11T23:27:42;13.70;2201.60
55701;DHT22;41604;43.142;20.512;2024-01-11T23:30:08;13.60;2201.60
55701;DHT22;41604;43.142;20.512;2024-01-11T23:32:35;38.40;2201.60
55701;DHT22;41604;43.142;20.512;2024-01-11T23:35:01;38.40;2201.60
55701;DHT22;41604;43.142;20.512;2024-01-11T23:37:27;38.60;2201.60
55701;DHT22;41604;43.142;20.512;2024-01-11T23:39:52;38.50;2201.60
55701;DHT22;41604;43.142;20.512;2024-01-11T23:42:18;38.50;2201.60
55701;DHT22;41604;43.142;20.512;2024-01-11T23:44:44;38.50;2201.60
55701;DHT22;41604;43.142;20.512;2024-01-11T23:47:10;38.50;2201.60
55701;DHT22;41604;43.142;20.512;2024-01-11T23:49:36;38.50;2201.60
55701;DHT22;41604;43.142;20.512;2024-01-11T23:52:01;38.40;2201.60
55701;DHT22;41604;43.142;20.512;2024-01-11T23:54:27;38.40;2201.60
55701;DHT22;41604;43.142;20.512;2024-01-11T23:56:53;13.70;2201.60
55701;DHT22;41604;43.142;20.512;2024-01-11T23:59:19;13.50;2201.60
